CPX441 Details

Departure: Salt Lake City International Airport (KSLC)
Arrival: Chicago/Rockford International Airport (KRFD) at N/A
Route: RUGGD1 OCS KURSE Q122 FOD BHAWK RFD
Notes:


Current Weather Information
KSLC 230754Z 29003KT 10SM FEW085 11/01 A3020 RMK AO2 SLP202 T01060011 $
KRFD 230754Z 22008KT 10SM CLR 06/M01 A2983 RMK AO2 SLP106 T00561006